Time;durP1;ratioP1;P1;durP2;ratioP2;P2;SDS_P1;SDS_P2;PMS_P1;PMS_P2;Temp;Humidity;BMP_temperature;BMP_pressure;BME280_temperature;BME280_humidity;BME280_pressure;Samples;Min_cycle;Max_cycle;Signal;HPM_P1;HPM_P2
2024/03/08 00:01:28;;;;;;;0.10;0.10;;;23.80;40.70;;;;;;4976823;28;20222;-49
2024/03/08 00:04:00;;;;;;;0.00;0.00;;;23.80;40.70;;;;;;4982862;28;20268;-49
2024/03/08 00:06:31;;;;;;;0.00;0.00;;;23.80;40.70;;;;;;4980088;28;20280;-51
2024/03/08 00:09:02;;;;;;;0.10;0.10;;;23.80;40.70;;;;;;4978070;28;20202;-48
2024/03/08 00:11:32;;;;;;;0.05;0.05;;;23.80;40.70;;;;;;4980729;28;20300;-50
2024/03/08 00:14:06;;;;;;;0.08;0.08;;;23.80;40.70;;;;;;4981389;28;20197;-52
2024/03/08 00:16:37;;;;;;;0.00;0.00;;;23.80;40.70;;;;;;4987282;28;20233;-50
2024/03/08 00:19:09;;;;;;;0.00;0.00;;;23.80;40.70;;;;;;4987805;28;20778;-47
2024/03/08 00:21:41;;;;;;;0.03;0.03;;;23.80;40.70;;;;;;4988056;28;20217;-46
2024/03/08 00:24:12;;;;;;;0.00;0.00;;;23.80;40.70;;;;;;4987333;28;20213;-48
2024/03/08 00:26:43;;;;;;;0.00;0.00;;;23.80;40.60;;;;;;4985919;28;20205;-47
2024/03/08 00:29:13;;;;;;;0.00;0.00;;;23.80;40.60;;;;;;4977296;28;20277;-48
2024/03/08 00:31:44;;;;;;;0.00;0.00;;;23.80;40.70;;;;;;4978264;28;20210;-49
2024/03/08 00:34:17;;;;;;;0.00;0.00;;;23.90;40.70;;;;;;4984867;28;20674;-48
2024/03/08 00:36:47;;;;;;;0.00;0.00;;;23.90;40.60;;;;;;4976339;28;20244;-51
2024/03/08 00:39:19;;;;;;;0.00;0.00;;;23.90;40.60;;;;;;4962243;28;20210;-47
2024/03/08 00:41:50;;;;;;;0.00;0.00;;;23.90;40.60;;;;;;4972425;28;20228;-49
2024/03/08 00:44:20;;;;;;;0.08;0.08;;;23.90;40.60;;;;;;4973032;28;20209;-48
2024/03/08 00:46:51;;;;;;;0.00;0.00;;;23.90;40.50;;;;;;4977373;28;20547;-48
2024/03/08 00:49:24;;;;;;;0.00;0.00;;;23.90;40.50;;;;;;4991223;28;20248;-52
2024/03/08 00:51:54;;;;;;;0.10;0.10;;;23.90;40.50;;;;;;4991434;28;20225;-49
2024/03/08 00:54:25;;;;;;;0.05;0.05;;;23.90;40.50;;;;;;4990624;28;20197;-52
2024/03/08 00:56:56;;;;;;;0.00;0.00;;;23.90;40.50;;;;;;4971860;28;20599;-49
2024/03/08 00:59:26;;;;;;;0.00;0.00;;;23.90;40.40;;;;;;4990876;28;20197;-50
2024/03/08 01:04:30;;;;;;;0.00;0.00;;;23.90;40.40;;;;;;4987392;28;20213;-48
2024/03/08 01:07:01;;;;;;;0.00;0.00;;;23.90;40.50;;;;;;4965653;28;20206;-48
2024/03/08 01:09:32;;;;;;;0.00;0.00;;;23.90;40.40;;;;;;4972760;28;20586;-47
2024/03/08 01:12:03;;;;;;;0.00;0.00;;;23.90;40.40;;;;;;4985272;28;20591;-48
2024/03/08 01:14:33;;;;;;;0.00;0.00;;;23.80;40.30;;;;;;4991623;28;20209;-47
2024/03/08 01:17:04;;;;;;;0.10;0.10;;;23.80;40.30;;;;;;4991543;28;20232;-46
2024/03/08 01:19:36;;;;;;;0.00;0.00;;;23.80;40.40;;;;;;4991868;28;20281;-46
2024/03/08 01:22:07;;;;;;;0.10;0.10;;;23.80;40.40;;;;;;4990950;28;20225;-48
2024/03/08 01:24:38;;;;;;;0.10;0.10;;;23.80;40.50;;;;;;4991657;28;20202;-48
2024/03/08 01:27:09;;;;;;;0.00;0.00;;;23.80;40.40;;;;;;4975191;28;20202;-49
2024/03/08 01:29:40;;;;;;;0.00;0.00;;;23.80;40.40;;;;;;4971690;28;20202;-46
2024/03/08 01:32:10;;;;;;;0.00;0.00;;;23.90;40.50;;;;;;4975458;28;20221;-49
2024/03/08 01:34:45;;;;;;;0.00;0.00;;;23.80;40.40;;;;;;4990532;28;20211;-47
2024/03/08 01:37:16;;;;;;;0.10;0.10;;;23.80;40.40;;;;;;4990830;28;20224;-48
2024/03/08 01:39:47;;;;;;;0.00;0.00;;;23.80;40.50;;;;;;4990531;28;20242;-47
2024/03/08 01:42:18;;;;;;;0.00;0.00;;;23.80;40.50;;;;;;4990484;28;20222;-46
2024/03/08 01:44:48;;;;;;;0.00;0.00;;;23.80;40.50;;;;;;4989690;28;20197;-45
2024/03/08 01:47:20;;;;;;;0.00;0.00;;;23.80;40.50;;;;;;4990734;28;20205;-46
2024/03/08 01:49:52;;;;;;;0.00;0.00;;;23.80;40.50;;;;;;4990592;28;20241;-47
2024/03/08 01:52:25;;;;;;;0.00;0.00;;;23.80;40.90;;;;;;4990064;28;20263;-46
2024/03/08 01:54:56;;;;;;;0.00;0.00;;;23.80;40.50;;;;;;4990513;28;20284;-46
2024/03/08 01:57:26;;;;;;;0.00;0.00;;;23.80;40.50;;;;;;4989661;28;20256;-46
2024/03/08 01:59:58;;;;;;;0.10;0.10;;;23.80;40.50;;;;;;4990488;28;20479;-48
2024/03/08 02:02:29;;;;;;;0.00;0.00;;;23.80;40.50;;;;;;5008828;23;20242;-49
2024/03/08 02:05:03;;;;;;;0.00;0.00;;;23.80;40.50;;;;;;5015876;28;20255;-50
2024/03/08 02:07:33;;;;;;;0.00;0.00;;;23.80;40.50;;;;;;5025869;28;20204;-55
2024/03/08 02:10:04;;;;;;;0.00;0.00;;;23.80;41.10;;;;;;5029086;28;20684;-50
2024/03/08 02:12:34;;;;;;;0.00;0.00;;;23.80;40.50;;;;;;5030118;28;20204;-46
2024/03/08 02:15:06;;;;;;;0.00;0.00;;;23.80;41.10;;;;;;5030120;28;20876;-55
2024/03/08 02:17:37;;;;;;;0.00;0.00;;;23.80;40.40;;;;;;5029288;28;20227;-53
2024/03/08 02:20:10;;;;;;;0.00;0.00;;;23.80;40.30;;;;;;5028971;28;20211;-54
2024/03/08 02:22:43;;;;;;;0.00;0.00;;;23.80;40.20;;;;;;5029576;28;20279;-54
2024/03/08 02:25:14;;;;;;;0.00;0.00;;;23.80;40.20;;;;;;5029113;28;20711;-55
2024/03/08 02:27:44;;;;;;;0.00;0.00;;;23.80;40.20;;;;;;5029880;28;20211;-51
2024/03/08 02:30:17;;;;;;;0.00;0.00;;;23.80;40.20;;;;;;5028571;28;20196;-51
2024/03/08 02:32:47;;;;;;;0.00;0.00;;;23.80;40.10;;;;;;5025931;28;20275;-54
2024/03/08 02:35:18;;;;;;;0.00;0.00;;;23.80;40.70;;;;;;5029441;28;20277;-53
2024/03/08 02:37:51;;;;;;;0.03;0.03;;;23.80;40.00;;;;;;5026113;28;20681;-57
2024/03/08 02:40:21;;;;;;;0.08;0.08;;;23.80;40.00;;;;;;5028293;28;20224;-54
2024/03/08 02:42:52;;;;;;;0.00;0.00;;;23.80;40.00;;;;;;5028710;28;20203;-48
2024/03/08 02:45:23;;;;;;;0.00;0.00;;;23.80;39.90;;;;;;5028255;28;20200;-56
2024/03/08 02:47:53;;;;;;;0.00;0.00;;;23.80;39.90;;;;;;5028127;28;20204;-51
2024/03/08 02:50:25;;;;;;;0.10;0.10;;;23.80;40.60;;;;;;5028373;28;20219;-50
2024/03/08 02:52:57;;;;;;;0.00;0.00;;;23.80;39.90;;;;;;5029348;28;20254;-54
2024/03/08 02:55:29;;;;;;;0.00;0.00;;;23.80;39.90;;;;;;5028828;28;20732;-52
2024/03/08 02:57:59;;;;;;;0.00;0.00;;;23.80;39.90;;;;;;5028485;28;20295;-58
2024/03/08 03:00:30;;;;;;;0.00;0.00;;;23.90;40.00;;;;;;5025167;28;20208;-54
2024/03/08 03:03:02;;;;;;;0.00;0.00;;;23.90;39.90;;;;;;5028817;23;20732;-47
2024/03/08 03:05:33;;;;;;;0.00;0.00;;;23.90;39.90;;;;;;5028823;28;20200;-47
2024/03/08 03:08:08;;;;;;;0.00;0.00;;;23.90;39.80;;;;;;5027886;28;20212;-47
2024/03/08 03:10:39;;;;;;;0.00;0.00;;;23.90;39.80;;;;;;5022164;28;20224;-46
2024/03/08 03:13:09;;;;;;;0.00;0.00;;;23.90;39.80;;;;;;5009004;28;20196;-46
2024/03/08 03:15:41;;;;;;;0.00;0.00;;;23.90;39.80;;;;;;5009159;28;20200;-46
2024/03/08 03:18:12;;;;;;;0.00;0.00;;;23.90;39.80;;;;;;5009245;28;20363;-45
2024/03/08 03:20:42;;;;;;;0.00;0.00;;;23.90;39.80;;;;;;4991445;28;20658;-47
2024/03/08 03:23:20;;;;;;;0.00;0.00;;;23.90;39.90;;;;;;4989025;28;20201;-48
2024/03/08 03:25:52;;;;;;;0.00;0.00;;;23.90;39.80;;;;;;5005677;28;20213;-45
2024/03/08 03:28:23;;;;;;;0.10;0.10;;;23.90;39.80;;;;;;5008358;28;20291;-45
2024/03/08 03:30:54;;;;;;;0.00;0.00;;;23.90;39.80;;;;;;5008638;28;20635;-46
2024/03/08 03:33:25;;;;;;;0.00;0.00;;;23.90;39.90;;;;;;4992290;28;20211;-45
2024/03/08 03:35:55;;;;;;;0.00;0.00;;;23.90;39.90;;;;;;4988419;28;20204;-45
2024/03/08 03:38:28;;;;;;;0.00;0.00;;;23.90;39.90;;;;;;4987973;28;20205;-46
2024/03/08 03:41:06;;;;;;;0.00;0.00;;;24.00;40.00;;;;;;4988065;28;20755;-47
2024/03/08 03:43:37;;;;;;;0.00;0.00;;;24.00;40.10;;;;;;4997934;28;20212;-49
2024/03/08 03:46:10;;;;;;;0.10;0.10;;;24.00;40.10;;;;;;5008643;28;20213;-46
2024/03/08 03:48:42;;;;;;;0.00;0.00;;;24.00;40.10;;;;;;5008892;28;20200;-47
2024/03/08 03:51:15;;;;;;;0.10;0.10;;;24.00;40.10;;;;;;5007834;28;20221;-45
2024/03/08 03:53:47;;;;;;;0.00;0.00;;;24.00;40.10;;;;;;5008151;28;20207;-46
2024/03/08 03:56:18;;;;;;;0.00;0.00;;;24.00;40.10;;;;;;4998696;28;20278;-48
2024/03/08 03:58:49;;;;;;;0.00;0.00;;;24.00;40.10;;;;;;5006271;28;20197;-47
2024/03/08 04:01:20;;;;;;;0.00;0.00;;;24.00;40.10;;;;;;5005611;28;20308;-47
2024/03/08 04:03:51;;;;;;;0.05;0.05;;;24.00;40.10;;;;;;5010794;23;20336;-46
2024/03/08 04:06:22;;;;;;;0.00;0.00;;;24.00;40.10;;;;;;4998570;28;20201;-46
2024/03/08 04:08:55;;;;;;;0.00;0.00;;;24.00;40.10;;;;;;4997596;28;20201;-47
2024/03/08 04:11:26;;;;;;;0.00;0.00;;;24.00;40.10;;;;;;5001785;28;20267;-49
2024/03/08 04:13:57;;;;;;;0.00;0.00;;;24.10;40.10;;;;;;5006531;28;20204;-47
2024/03/08 04:16:28;;;;;;;0.00;0.00;;;24.10;40.10;;;;;;5007808;28;20646;-49
2024/03/08 04:18:58;;;;;;;0.00;0.00;;;24.10;40.10;;;;;;5007378;28;20734;-48
2024/03/08 04:21:29;;;;;;;0.00;0.00;;;24.10;40.20;;;;;;5007277;28;20221;-51
2024/03/08 04:24:01;;;;;;;0.00;0.00;;;24.10;40.20;;;;;;5006996;28;20263;-49
2024/03/08 04:26:32;;;;;;;0.10;0.10;;;24.10;40.20;;;;;;5008339;28;20200;-50
2024/03/08 04:29:03;;;;;;;0.00;0.00;;;24.20;40.30;;;;;;5006768;28;20208;-47
2024/03/08 04:31:33;;;;;;;0.00;0.00;;;24.10;40.20;;;;;;5006467;28;20217;-47
2024/03/08 04:34:05;;;;;;;0.00;0.00;;;24.20;40.20;;;;;;4988443;28;20201;-46
2024/03/08 04:36:36;;;;;;;0.00;0.00;;;24.20;40.30;;;;;;5001665;28;20696;-45
2024/03/08 04:39:12;;;;;;;0.00;0.00;;;24.20;40.30;;;;;;5008124;28;20200;-46
2024/03/08 04:41:43;;;;;;;0.05;0.05;;;24.20;40.30;;;;;;5006997;28;20227;-51
2024/03/08 04:44:14;;;;;;;0.00;0.00;;;24.20;40.30;;;;;;5006528;28;20551;-53
2024/03/08 04:46:45;;;;;;;0.00;0.00;;;24.20;40.30;;;;;;5007681;28;20737;-49
2024/03/08 04:49:16;;;;;;;0.10;0.10;;;24.30;40.30;;;;;;5007378;28;20292;-51
2024/03/08 04:51:46;;;;;;;0.00;0.00;;;24.30;40.30;;;;;;5006964;28;20294;-47
2024/03/08 04:54:19;;;;;;;0.00;0.00;;;24.20;40.20;;;;;;5007162;28;20205;-49
2024/03/08 04:56:50;;;;;;;0.00;0.00;;;24.30;40.20;;;;;;5007282;28;20235;-50
2024/03/08 04:59:20;;;;;;;0.00;0.00;;;24.30;40.10;;;;;;5006656;28;20200;-48
2024/03/08 05:01:51;;;;;;;0.00;0.00;;;24.30;40.10;;;;;;5007006;28;20225;-52
2024/03/08 05:04:22;;;;;;;0.10;0.10;;;24.30;40.10;;;;;;4988021;28;20264;-48
2024/03/08 05:06:53;;;;;;;0.00;0.00;;;24.30;40.00;;;;;;5007464;28;20201;-48
2024/03/08 05:09:25;;;;;;;0.00;0.00;;;24.30;40.00;;;;;;5007353;28;20237;-45
2024/03/08 05:11:58;;;;;;;0.00;0.00;;;24.30;40.00;;;;;;5006786;28;20232;-50
2024/03/08 05:14:29;;;;;;;0.00;0.00;;;24.30;40.00;;;;;;5006138;28;20205;-48
2024/03/08 05:17:00;;;;;;;0.00;0.00;;;24.30;40.00;;;;;;5007276;28;20228;-48
2024/03/08 05:19:32;;;;;;;0.00;0.00;;;24.30;39.90;;;;;;5007736;28;21326;-51
2024/03/08 05:22:02;;;;;;;0.00;0.00;;;24.30;39.90;;;;;;5006974;28;20228;-48
2024/03/08 05:24:35;;;;;;;0.00;0.00;;;24.30;40.00;;;;;;5007183;28;20627;-49
2024/03/08 05:27:06;;;;;;;0.00;0.00;;;24.30;40.00;;;;;;5007108;28;20208;-47
2024/03/08 05:29:37;;;;;;;0.00;0.00;;;24.30;40.00;;;;;;5006703;28;20263;-47
2024/03/08 05:32:09;;;;;;;0.00;0.00;;;24.30;40.00;;;;;;5007212;28;20271;-47
2024/03/08 05:34:40;;;;;;;0.00;0.00;;;24.30;40.00;;;;;;4991513;28;20591;-51
2024/03/08 05:37:11;;;;;;;0.10;0.10;;;24.30;40.00;;;;;;4991130;28;20233;-48
2024/03/08 05:39:44;;;;;;;0.00;0.00;;;24.30;40.00;;;;;;4989940;28;20213;-49
2024/03/08 05:42:15;;;;;;;0.00;0.00;;;24.30;40.00;;;;;;5006774;28;20220;-47
2024/03/08 05:44:45;;;;;;;0.03;0.03;;;24.30;40.10;;;;;;5009095;28;20204;-48
2024/03/08 05:47:16;;;;;;;0.00;0.00;;;24.30;40.00;;;;;;5010997;28;20216;-49
2024/03/08 05:49:47;;;;;;;0.00;0.00;;;24.30;40.10;;;;;;5010667;28;20251;-48
2024/03/08 05:52:17;;;;;;;0.00;0.00;;;24.30;40.00;;;;;;5010138;28;20221;-49
2024/03/08 05:54:50;;;;;;;0.00;0.00;;;24.30;40.10;;;;;;5009686;28;20196;-49
2024/03/08 05:57:22;;;;;;;0.00;0.00;;;24.30;40.10;;;;;;5009793;28;20228;-49
2024/03/08 05:59:53;;;;;;;0.00;0.00;;;24.30;40.10;;;;;;5010890;28;20201;-48
2024/03/08 06:02:24;;;;;;;0.00;0.00;;;24.30;40.10;;;;;;5009677;28;20204;-49
2024/03/08 06:04:54;;;;;;;0.00;0.00;;;24.30;40.10;;;;;;5010461;28;20235;-46
2024/03/08 06:07:25;;;;;;;0.00;0.00;;;24.30;40.20;;;;;;5009721;28;20598;-46
2024/03/08 06:09:57;;;;;;;0.00;0.00;;;24.30;40.10;;;;;;5010109;28;20201;-47
2024/03/08 06:12:32;;;;;;;0.00;0.00;;;24.30;40.20;;;;;;5009847;28;20201;-44
2024/03/08 06:15:04;;;;;;;0.00;0.00;;;24.30;40.10;;;;;;5008946;28;20208;-47
2024/03/08 06:17:34;;;;;;;0.00;0.00;;;24.30;40.20;;;;;;5010452;28;20237;-48
2024/03/08 06:20:10;;;;;;;0.00;0.00;;;24.20;40.10;;;;;;5008926;28;20555;-47
2024/03/08 06:22:41;;;;;;;0.00;0.00;;;24.30;40.20;;;;;;5009796;28;20270;-48
2024/03/08 06:25:15;;;;;;;0.00;0.00;;;24.30;40.20;;;;;;5013633;28;20215;-47
2024/03/08 06:27:46;;;;;;;0.00;0.00;;;24.20;40.10;;;;;;5028234;28;20231;-51
2024/03/08 06:30:17;;;;;;;0.00;0.00;;;24.20;40.10;;;;;;5028983;28;20246;-50
2024/03/08 06:32:49;;;;;;;0.00;0.00;;;24.20;40.10;;;;;;5028932;28;20232;-47
2024/03/08 06:35:20;;;;;;;0.00;0.00;;;24.20;40.10;;;;;;5019856;28;20337;-48
2024/03/08 06:37:50;;;;;;;0.05;0.05;;;24.20;40.80;;;;;;5009665;28;20232;-47
2024/03/08 06:40:23;;;;;;;0.00;0.00;;;24.20;40.20;;;;;;5009700;28;20228;-47
2024/03/08 06:42:54;;;;;;;0.00;0.00;;;24.20;40.20;;;;;;5011211;28;20231;-51
2024/03/08 06:45:25;;;;;;;0.00;0.00;;;24.10;40.10;;;;;;5012583;28;20992;-47
2024/03/08 06:47:56;;;;;;;0.00;0.00;;;24.10;40.10;;;;;;5012865;28;20201;-44
2024/03/08 06:50:26;;;;;;;0.00;0.00;;;24.10;40.10;;;;;;5012712;28;20265;-44
2024/03/08 06:52:57;;;;;;;0.00;0.00;;;24.10;40.10;;;;;;5011641;28;20193;-47
2024/03/08 06:55:30;;;;;;;0.00;0.00;;;24.10;40.10;;;;;;5011957;28;20209;-49
2024/03/08 06:58:00;;;;;;;0.00;0.00;;;24.10;40.10;;;;;;5011817;28;20224;-50
2024/03/08 07:00:31;;;;;;;0.00;0.00;;;24.10;40.20;;;;;;5011470;28;20339;-48
2024/03/08 07:03:02;;;;;;;0.03;0.03;;;24.00;40.10;;;;;;5012780;28;20240;-49
2024/03/08 07:05:33;;;;;;;0.00;0.00;;;24.00;40.10;;;;;;5012626;28;20196;-51
2024/03/08 07:08:04;;;;;;;0.00;0.00;;;24.00;40.10;;;;;;5012347;28;20395;-51
2024/03/08 07:10:37;;;;;;;0.00;0.00;;;24.00;40.10;;;;;;5012135;28;20221;-49
2024/03/08 07:13:07;;;;;;;0.00;0.00;;;24.00;40.20;;;;;;5012239;28;20829;-48
2024/03/08 07:15:38;;;;;;;0.00;0.00;;;24.00;40.20;;;;;;5011995;28;20661;-45
2024/03/08 07:18:14;;;;;;;0.00;0.00;;;24.00;40.20;;;;;;5012123;28;20229;-50
2024/03/08 07:20:45;;;;;;;0.00;0.00;;;24.00;40.20;;;;;;5012208;28;20220;-50
2024/03/08 07:23:46;;;;;;;0.00;0.00;;;23.90;40.20;;;;;;5011819;28;20211;-48
2024/03/08 07:26:08;;;;;;;0.00;0.00;;;23.90;40.20;;;;;;5012284;28;20593;-46
2024/03/08 07:28:39;;;;;;;0.00;0.00;;;23.90;40.20;;;;;;5012196;28;20205;-48
2024/03/08 07:31:21;;;;;;;0.05;0.05;;;23.90;40.30;;;;;;5011600;28;20720;-48
2024/03/08 07:33:53;;;;;;;0.00;0.00;;;23.90;40.20;;;;;;5011832;28;20251;-48
2024/03/08 07:36:23;;;;;;;0.00;0.00;;;23.90;40.30;;;;;;5011655;28;20200;-45
2024/03/08 07:38:54;;;;;;;0.00;0.00;;;23.80;40.20;;;;;;5004960;28;20634;-50
2024/03/08 07:41:27;;;;;;;0.00;0.00;;;23.80;40.20;;;;;;4988857;28;20272;-48
2024/03/08 07:43:58;;;;;;;0.00;0.00;;;23.80;40.20;;;;;;5007736;28;20247;-50
2024/03/08 07:46:29;;;;;;;0.00;0.00;;;23.80;40.20;;;;;;5007796;28;20196;-49
2024/03/08 07:48:59;;;;;;;0.00;0.00;;;23.80;40.20;;;;;;5008004;28;20200;-45
2024/03/08 07:51:30;;;;;;;0.00;0.00;;;23.80;40.20;;;;;;5008326;28;20216;-49
2024/03/08 07:54:01;;;;;;;0.00;0.00;;;23.80;40.30;;;;;;5007053;28;20688;-49
2024/03/08 07:56:33;;;;;;;0.00;0.00;;;23.80;40.30;;;;;;5008034;28;20761;-48
2024/03/08 07:59:05;;;;;;;0.00;0.00;;;23.70;40.20;;;;;;5007178;28;20224;-49
2024/03/08 08:01:35;;;;;;;0.00;0.00;;;23.70;40.20;;;;;;5007730;28;20224;-49
2024/03/08 08:04:06;;;;;;;0.00;0.00;;;23.70;40.30;;;;;;5008016;28;20538;-50
2024/03/08 08:06:39;;;;;;;0.00;0.00;;;23.70;40.20;;;;;;5007499;28;20787;-51
2024/03/08 08:09:14;;;;;;;0.00;0.00;;;23.70;40.30;;;;;;5007756;28;20646;-48
2024/03/08 08:11:47;;;;;;;0.00;0.00;;;23.70;40.20;;;;;;5007694;28;20213;-48
2024/03/08 08:14:17;;;;;;;0.00;0.00;;;23.70;40.20;;;;;;5008211;28;20696;-48
2024/03/08 08:16:48;;;;;;;0.00;0.00;;;23.70;40.20;;;;;;5007399;28;20572;-51
2024/03/08 08:19:19;;;;;;;0.00;0.00;;;23.70;40.30;;;;;;5006937;28;20715;-50
2024/03/08 08:21:49;;;;;;;0.00;0.00;;;23.70;40.30;;;;;;5007685;28;20228;-47
2024/03/08 08:24:21;;;;;;;0.00;0.00;;;23.60;40.20;;;;;;5007564;28;20696;-49
2024/03/08 08:26:54;;;;;;;0.00;0.00;;;23.60;40.20;;;;;;5008093;28;20204;-46
2024/03/08 08:29:25;;;;;;;0.00;0.00;;;23.60;40.20;;;;;;5007109;28;20213;-47
2024/03/08 08:31:55;;;;;;;0.00;0.00;;;23.60;40.20;;;;;;5007718;28;20667;-47
2024/03/08 08:34:26;;;;;;;0.00;0.00;;;23.60;40.20;;;;;;5007012;28;20212;-45
2024/03/08 08:36:57;;;;;;;0.05;0.05;;;23.60;40.20;;;;;;5007620;28;20205;-45
2024/03/08 08:39:27;;;;;;;0.00;0.00;;;23.50;40.20;;;;;;5006953;28;20224;-48
2024/03/08 08:42:00;;;;;;;0.00;0.00;;;23.50;40.20;;;;;;5007310;28;20618;-47
2024/03/08 08:44:31;;;;;;;0.00;0.00;;;23.50;40.20;;;;;;5007535;28;20205;-45
2024/03/08 08:47:02;;;;;;;0.00;0.00;;;23.50;40.20;;;;;;5007550;28;20200;-48
2024/03/08 08:49:33;;;;;;;0.00;0.00;;;23.50;40.20;;;;;;5008270;28;20827;-50
2024/03/08 08:52:05;;;;;;;0.10;0.10;;;23.40;40.20;;;;;;5006655;28;20220;-51
2024/03/08 08:54:36;;;;;;;0.00;0.00;;;23.40;40.20;;;;;;5007343;28;20290;-50
2024/03/08 08:57:08;;;;;;;0.00;0.00;;;23.40;40.20;;;;;;5006617;28;20392;-46
2024/03/08 08:59:39;;;;;;;0.00;0.00;;;23.40;40.20;;;;;;5007660;28;20250;-47
2024/03/08 09:02:14;;;;;;;0.00;0.00;;;23.40;40.20;;;;;;5007513;28;20216;-45
2024/03/08 09:04:45;;;;;;;0.00;0.00;;;23.30;40.20;;;;;;5006834;28;20258;-47
2024/03/08 09:07:16;;;;;;;0.00;0.00;;;23.30;40.20;;;;;;5009801;28;20201;-48
2024/03/08 09:09:46;;;;;;;0.00;0.00;;;23.30;40.20;;;;;;5011240;28;20201;-46
2024/03/08 09:12:19;;;;;;;0.00;0.00;;;23.30;40.20;;;;;;5009458;28;20596;-45
2024/03/08 09:14:50;;;;;;;0.00;0.00;;;23.30;40.30;;;;;;5011124;28;20247;-49
2024/03/08 09:17:20;;;;;;;0.00;0.00;;;23.30;40.30;;;;;;5011149;28;20288;-48
2024/03/08 09:19:51;;;;;;;0.00;0.00;;;23.20;40.20;;;;;;5011070;28;20288;-46
2024/03/08 09:22:22;;;;;;;0.00;0.00;;;23.30;40.30;;;;;;5009940;28;20255;-49
2024/03/08 09:24:53;;;;;;;0.00;0.00;;;23.20;40.30;;;;;;5010361;28;20611;-46
2024/03/08 09:27:25;;;;;;;0.10;0.10;;;23.20;40.30;;;;;;5011252;28;20637;-47
2024/03/08 09:29:56;;;;;;;0.00;0.00;;;23.20;40.30;;;;;;5010560;28;20219;-48
2024/03/08 09:32:26;;;;;;;0.00;0.00;;;23.10;40.30;;;;;;5010189;28;20189;-48
2024/03/08 09:34:57;;;;;;;0.00;0.00;;;23.10;40.30;;;;;;5009741;28;20201;-45
2024/03/08 09:37:28;;;;;;;0.00;0.00;;;23.10;40.30;;;;;;5009935;28;20201;-46
2024/03/08 09:39:59;;;;;;;0.00;0.00;;;23.10;40.30;;;;;;5010432;28;20239;-51
2024/03/08 09:42:32;;;;;;;0.00;0.00;;;23.10;40.30;;;;;;5010701;28;20201;-49
2024/03/08 09:45:03;;;;;;;0.00;0.00;;;23.00;40.30;;;;;;5009353;28;20669;-46
2024/03/08 09:47:38;;;;;;;0.00;0.00;;;23.00;40.30;;;;;;5010346;28;20197;-49
2024/03/08 09:50:13;;;;;;;0.03;0.03;;;23.00;40.40;;;;;;5010737;28;20223;-44
2024/03/08 09:52:45;;;;;;;0.00;0.00;;;23.00;40.40;;;;;;5009790;28;20212;-46
2024/03/08 09:55:17;;;;;;;0.00;0.00;;;23.00;40.70;;;;;;5009939;28;20505;-46
2024/03/08 10:00:35;;;;;;;0.00;0.00;;;23.00;40.40;;;;;;5009380;28;20619;-47
2024/03/08 10:03:06;;;;;;;0.00;0.00;;;22.90;40.30;;;;;;5011166;28;20324;-47
2024/03/08 10:05:37;;;;;;;0.00;0.00;;;22.90;40.30;;;;;;5010136;28;20207;-48
2024/03/08 10:08:07;;;;;;;0.00;0.00;;;22.90;40.40;;;;;;5008101;28;20272;-47
2024/03/08 10:10:38;;;;;;;0.00;0.00;;;22.90;40.40;;;;;;5013046;28;20220;-45
2024/03/08 10:13:12;;;;;;;0.00;0.00;;;22.90;40.40;;;;;;5013445;28;20197;-45
2024/03/08 10:15:43;;;;;;;0.08;0.08;;;22.90;40.30;;;;;;5013249;28;20276;-45
2024/03/08 10:18:14;;;;;;;0.10;0.10;;;22.90;40.40;;;;;;5012428;28;20225;-45
2024/03/08 10:20:45;;;;;;;0.00;0.00;;;22.80;40.40;;;;;;5012088;28;20223;-44
2024/03/08 10:23:17;;;;;;;0.03;0.03;;;22.80;40.50;;;;;;5012731;28;20255;-47
2024/03/08 10:25:48;;;;;;;0.00;0.00;;;22.80;40.30;;;;;;5010296;28;20542;-45
2024/03/08 10:28:21;;;;;;;0.00;0.00;;;22.80;40.40;;;;;;5012952;28;20624;-44
2024/03/08 10:30:52;;;;;;;0.00;0.00;;;22.80;40.40;;;;;;5010749;28;20204;-45
2024/03/08 10:33:23;;;;;;;0.00;0.00;;;22.70;40.30;;;;;;5013283;28;20189;-47
2024/03/08 10:35:56;;;;;;;0.00;0.00;;;22.70;40.40;;;;;;5012713;28;20188;-45
2024/03/08 10:38:28;;;;;;;0.05;0.05;;;22.70;40.40;;;;;;5012459;28;20208;-51
2024/03/08 10:40:59;;;;;;;0.00;0.00;;;22.70;40.40;;;;;;5012329;28;20280;-48
2024/03/08 10:43:37;;;;;;;0.00;0.00;;;22.60;40.40;;;;;;5010103;28;20200;-46
2024/03/08 10:46:19;;;;;;;0.00;0.00;;;22.60;40.40;;;;;;5009876;28;20188;-50
2024/03/08 10:48:54;;;;;;;0.00;0.00;;;22.60;40.50;;;;;;5009755;28;20189;-45
2024/03/08 10:51:25;;;;;;;0.03;0.03;;;22.60;40.40;;;;;;5011786;28;20216;-45
2024/03/08 10:53:58;;;;;;;0.00;0.00;;;22.60;40.50;;;;;;5011906;28;20199;-45
2024/03/08 10:56:29;;;;;;;0.00;0.00;;;22.50;40.40;;;;;;5008706;28;20665;-46
2024/03/08 10:59:01;;;;;;;0.10;0.10;;;22.60;40.50;;;;;;5011819;28;20220;-45
2024/03/08 11:01:32;;;;;;;0.00;0.00;;;22.50;40.40;;;;;;5009516;28;20760;-45
2024/03/08 11:04:06;;;;;;;0.00;0.00;;;22.50;40.40;;;;;;5012472;28;20196;-46
2024/03/08 11:06:49;;;;;;;0.00;0.00;;;22.50;40.40;;;;;;5012218;28;20193;-45
2024/03/08 11:09:33;;;;;;;0.00;0.00;;;22.50;40.50;;;;;;5011543;28;20636;-45
2024/03/08 11:12:29;;;;;;;0.00;0.00;;;22.50;40.40;;;;;;5011681;28;20209;-45
2024/03/08 11:15:04;;;;;;;0.00;0.00;;;22.40;40.60;;;;;;5011188;28;20200;-45
2024/03/08 11:17:50;;;;;;;0.00;0.00;;;22.50;40.80;;;;;;5010453;28;20619;-44
2024/03/08 11:20:22;;;;;;;0.10;0.10;;;22.50;40.90;;;;;;5010934;28;20224;-44
2024/03/08 11:22:55;;;;;;;0.00;0.00;;;22.40;40.80;;;;;;5009913;28;20272;-45
2024/03/08 11:25:41;;;;;;;0.00;0.00;;;22.40;40.80;;;;;;5011570;28;20193;-46
2024/03/08 11:28:19;;;;;;;0.00;0.00;;;22.40;41.00;;;;;;5009612;28;20192;-44
2024/03/08 11:31:28;;;;;;;0.00;0.00;;;22.40;41.00;;;;;;5009490;28;20204;-44
2024/03/08 11:33:59;;;;;;;0.00;0.00;;;22.40;41.20;;;;;;5010812;28;20200;-45
2024/03/08 11:36:31;;;;;;;0.00;0.00;;;22.40;41.20;;;;;;4992401;28;20197;-44
2024/03/08 11:39:09;;;;;;;0.00;0.00;;;22.40;41.20;;;;;;5011835;28;20220;-44
2024/03/08 11:41:41;;;;;;;0.00;0.00;;;22.30;41.30;;;;;;5012285;28;20630;-45
2024/03/08 11:44:15;;;;;;;0.00;0.00;;;22.30;41.30;;;;;;5011960;28;20197;-44
2024/03/08 11:46:48;;;;;;;0.05;0.05;;;22.30;41.40;;;;;;5011332;28;20203;-43
2024/03/08 11:49:19;;;;;;;0.10;0.10;;;22.30;41.50;;;;;;5011492;28;20680;-45
2024/03/08 11:51:53;;;;;;;0.00;0.00;;;22.30;41.50;;;;;;5011904;28;20213;-45
2024/03/08 11:54:23;;;;;;;0.00;0.00;;;22.20;41.50;;;;;;5012194;28;20210;-45
2024/03/08 11:56:56;;;;;;;0.05;0.05;;;22.20;41.50;;;;;;5011445;28;20188;-43
2024/03/08 11:59:27;;;;;;;0.00;0.00;;;22.20;41.60;;;;;;5011952;28;20224;-46
2024/03/08 12:02:10;;;;;;;0.00;0.00;;;22.20;41.50;;;;;;5011691;28;20217;-44
2024/03/08 12:04:41;;;;;;;0.00;0.00;;;22.20;41.50;;;;;;5011904;28;20212;-44
2024/03/08 12:07:14;;;;;;;0.00;0.00;;;22.20;41.60;;;;;;5011057;28;20196;-44
2024/03/08 12:09:47;;;;;;;0.00;0.00;;;22.20;41.70;;;;;;5012088;28;20192;-44
2024/03/08 12:12:18;;;;;;;0.10;0.10;;;22.20;42.50;;;;;;5011615;28;20217;-44
2024/03/08 12:14:49;;;;;;;0.00;0.00;;;22.20;42.00;;;;;;5010648;28;20208;-46
2024/03/08 12:17:21;;;;;;;0.00;0.00;;;22.10;42.00;;;;;;5011400;28;20729;-44
2024/03/08 12:19:54;;;;;;;0.00;0.00;;;22.10;42.00;;;;;;5010069;28;20221;-43
2024/03/08 12:22:29;;;;;;;0.10;0.10;;;22.10;42.10;;;;;;5010970;28;20617;-43
2024/03/08 12:25:10;;;;;;;0.00;0.00;;;22.10;42.80;;;;;;5010804;28;20203;-44
2024/03/08 12:27:41;;;;;;;0.10;0.10;;;22.10;42.10;;;;;;5011419;28;20197;-43
2024/03/08 12:30:23;;;;;;;0.10;0.10;;;22.10;42.10;;;;;;5010828;28;20216;-44
2024/03/08 12:33:01;;;;;;;0.00;0.00;;;22.00;42.10;;;;;;5011214;28;20586;-44
2024/03/08 12:35:33;;;;;;;0.00;0.00;;;22.00;42.00;;;;;;5011466;28;20199;-44
2024/03/08 12:38:05;;;;;;;0.10;0.10;;;22.00;42.00;;;;;;5010403;28;20283;-44
2024/03/08 12:40:40;;;;;;;0.00;0.00;;;22.00;42.00;;;;;;5012221;28;20235;-44
2024/03/08 12:43:11;;;;;;;0.00;0.00;;;22.00;42.00;;;;;;5015555;28;20196;-46
2024/03/08 12:45:42;;;;;;;0.10;0.10;;;22.00;42.00;;;;;;5015170;28;20203;-43
2024/03/08 12:48:18;;;;;;;0.00;0.00;;;22.00;42.00;;;;;;5015336;28;20251;-46
2024/03/08 12:50:51;;;;;;;0.00;0.00;;;22.00;42.00;;;;;;5015233;28;20307;-44
2024/03/08 12:53:22;;;;;;;0.00;0.00;;;21.90;41.90;;;;;;5015358;28;20661;-44
2024/03/08 12:55:56;;;;;;;0.10;0.10;;;21.90;41.80;;;;;;5014866;28;20535;-43
2024/03/08 12:58:27;;;;;;;0.05;0.05;;;21.90;41.80;;;;;;5014722;28;20204;-44
2024/03/08 13:00:59;;;;;;;0.00;0.00;;;21.90;41.90;;;;;;5014595;28;20294;-44
2024/03/08 13:03:31;;;;;;;0.00;0.00;;;21.90;41.80;;;;;;5015149;28;20212;-45
2024/03/08 13:06:02;;;;;;;0.00;0.00;;;21.90;41.80;;;;;;5014657;28;20201;-43
2024/03/08 13:08:35;;;;;;;0.00;0.00;;;21.80;41.80;;;;;;5014830;28;20204;-44
2024/03/08 13:11:07;;;;;;;0.03;0.03;;;21.80;41.80;;;;;;5014304;28;20754;-45
2024/03/08 13:13:39;;;;;;;0.00;0.00;;;21.80;41.80;;;;;;5014943;28;20247;-44
2024/03/08 13:16:12;;;;;;;0.00;0.00;;;21.80;41.80;;;;;;5014691;28;20676;-45
2024/03/08 13:18:45;;;;;;;0.00;0.00;;;21.70;41.80;;;;;;5014405;28;20228;-43